createdAt,value
2022-08-17T00:00:34.298Z,21.00
2022-08-17T00:05:51.005Z,21.00
2022-08-17T00:08:21.816Z,21.00
2022-08-17T00:10:51.204Z,21.10
2022-08-17T00:13:31.046Z,21.10
2022-08-17T00:16:01.854Z,20.90
2022-08-17T00:19:00.997Z,20.90
2022-08-17T00:21:27.596Z,20.80
2022-08-17T00:24:15.049Z,20.90
2022-08-17T00:26:45.259Z,20.80
2022-08-17T00:31:48.382Z,20.50
2022-08-17T00:37:17.978Z,20.40
2022-08-17T00:39:45.567Z,19.10
2022-08-17T00:42:18.421Z,19.10
2022-08-17T00:44:45.760Z,20.30
2022-08-17T00:47:12.581Z,20.40
2022-08-17T01:00:43.980Z,20.50
2022-08-17T01:09:00.130Z,20.60
2022-08-17T01:11:29.979Z,20.60
2022-08-17T01:19:45.308Z,20.70
2022-08-17T01:22:12.076Z,20.70
2022-08-17T01:24:42.876Z,20.70
2022-08-17T01:27:10.920Z,20.70
2022-08-17T01:29:40.982Z,20.70
2022-08-17T01:32:08.737Z,20.70
2022-08-17T01:34:43.953Z,20.70
2022-08-17T01:37:19.006Z,20.60
2022-08-17T01:42:39.761Z,20.40
2022-08-17T01:45:23.087Z,20.30
2022-08-17T01:50:42.044Z,20.40
2022-08-17T01:53:19.166Z,20.40
2022-08-17T01:56:08.525Z,20.40
2022-08-17T01:58:52.503Z,20.40
2022-08-17T02:01:30.121Z,20.30
2022-08-17T02:06:53.387Z,20.40
2022-08-17T02:09:29.804Z,20.40
2022-08-17T02:11:59.410Z,20.30
2022-08-17T02:14:27.050Z,20.20
2022-08-17T02:19:40.449Z,20.20
2022-08-17T02:22:07.331Z,20.30
2022-08-17T02:32:57.124Z,20.20
2022-08-17T02:35:23.941Z,20.20
2022-08-17T02:37:55.365Z,20.20
2022-08-17T02:40:36.180Z,20.10
2022-08-17T02:43:04.344Z,19.90
2022-08-17T02:49:13.100Z,19.70
2022-08-17T02:51:40.482Z,19.70
2022-08-17T02:59:13.932Z,19.80
2022-08-17T03:01:40.949Z,19.90
2022-08-17T03:04:08.034Z,19.90
2022-08-17T03:06:35.462Z,20.00
2022-08-17T03:09:02.348Z,18.60
2022-08-17T03:11:29.118Z,19.90
2022-08-17T03:16:31.490Z,19.90
2022-08-17T03:19:00.963Z,19.90
2022-08-17T03:21:28.183Z,19.90
2022-08-17T03:23:57.853Z,19.90
2022-08-17T03:26:24.633Z,19.90
2022-08-17T03:28:56.608Z,19.90
2022-08-17T03:31:23.457Z,19.90
2022-08-17T03:33:50.265Z,19.90
2022-08-17T03:36:17.563Z,19.80
2022-08-17T03:38:45.113Z,19.80
2022-08-17T03:41:13.587Z,19.80
2022-08-17T03:43:40.392Z,19.80
2022-08-17T03:46:33.971Z,19.80
2022-08-17T03:52:23.227Z,19.80
2022-08-17T04:00:12.138Z,19.80
2022-08-17T04:05:24.703Z,19.80
2022-08-17T04:10:44.966Z,19.80
2022-08-17T04:13:13.245Z,19.90
2022-08-17T04:15:41.023Z,19.90
2022-08-17T04:27:33.596Z,20.10
2022-08-17T04:30:01.284Z,20.20
2022-08-17T04:33:04.319Z,20.20
2022-08-17T04:35:21.158Z,20.30
2022-08-17T04:40:43.620Z,20.40
2022-08-17T04:48:49.209Z,20.70
2022-08-17T04:59:20.502Z,21.00
2022-08-17T05:01:50.182Z,21.00
2022-08-17T05:18:21.553Z,21.50
2022-08-17T05:20:52.388Z,20.00
2022-08-17T05:23:22.491Z,21.70
2022-08-17T05:25:52.204Z,21.80
2022-08-17T05:28:26.559Z,21.90
2022-08-17T05:30:58.241Z,21.90
2022-08-17T05:33:28.104Z,22.00
2022-08-17T05:35:57.576Z,22.10
2022-08-17T05:38:26.873Z,21.60
2022-08-17T05:40:55.195Z,22.10
2022-08-17T05:43:28.795Z,22.10
2022-08-17T05:46:08.396Z,20.90
2022-08-17T05:48:47.441Z,22.30
2022-08-17T05:59:32.884Z,22.50
2022-08-17T06:02:11.862Z,22.60
2022-08-17T06:05:10.533Z,22.60
2022-08-17T06:08:16.400Z,22.50
2022-08-17T06:10:58.279Z,22.50
2022-08-17T06:19:20.179Z,22.70
2022-08-17T06:21:51.255Z,22.80
2022-08-17T06:35:12.198Z,23.50
2022-08-17T06:37:50.805Z,23.60
2022-08-17T06:40:40.224Z,23.70
2022-08-17T06:43:20.838Z,23.90
2022-08-17T06:46:01.819Z,24.00
2022-08-17T06:51:41.201Z,24.10
2022-08-17T06:54:25.633Z,24.20
2022-08-17T06:57:02.453Z,24.30
2022-08-17T06:59:56.439Z,24.40
2022-08-17T07:05:09.698Z,24.60
2022-08-17T07:10:12.886Z,24.80
2022-08-17T07:15:24.694Z,24.90
2022-08-17T07:27:45.765Z,25.30
2022-08-17T07:30:21.395Z,25.50
2022-08-17T07:32:53.391Z,24.20
2022-08-17T07:41:19.211Z,25.60
2022-08-17T07:47:25.178Z,25.80
2022-08-17T07:49:52.270Z,25.80
2022-08-17T07:52:51.496Z,25.10
2022-08-17T07:55:31.802Z,26.00
2022-08-17T08:01:18.425Z,26.20
2022-08-17T08:06:32.291Z,26.40
2022-08-17T08:09:00.907Z,26.40
2022-08-17T08:14:29.607Z,26.60
2022-08-17T08:17:01.232Z,25.40
2022-08-17T08:19:30.499Z,26.50
2022-08-17T08:24:53.472Z,26.20
2022-08-17T08:27:41.809Z,26.10
2022-08-17T08:30:10.445Z,27.00
2022-08-17T08:32:37.396Z,27.00
2022-08-17T08:38:47.423Z,27.20
2022-08-17T08:41:38.365Z,27.20
2022-08-17T08:44:09.490Z,27.40
2022-08-17T08:50:07.365Z,27.60
2022-08-17T08:52:34.269Z,27.70
2022-08-17T08:55:18.249Z,27.30
2022-08-17T08:57:48.634Z,27.80
2022-08-17T09:00:26.070Z,27.90
2022-08-17T09:03:49.716Z,28.00
2022-08-17T09:06:46.968Z,28.10
2022-08-17T09:09:32.410Z,28.10
2022-08-17T09:12:11.259Z,28.10
2022-08-17T09:14:47.373Z,28.10
2022-08-17T09:17:19.395Z,28.20
2022-08-17T09:19:58.684Z,26.80
2022-08-17T09:22:37.599Z,28.40
2022-08-17T09:25:13.652Z,28.50
2022-08-17T09:27:50.545Z,28.60
2022-08-17T09:30:26.975Z,28.80
2022-08-17T09:33:12.192Z,29.00
2022-08-17T09:35:44.593Z,28.20
2022-08-17T09:44:45.363Z,29.50
2022-08-17T09:47:26.290Z,29.20
2022-08-17T09:50:00.421Z,29.70
2022-08-17T09:59:18.244Z,30.00
2022-08-17T10:02:04.896Z,30.10
2022-08-17T10:05:04.155Z,30.20
2022-08-17T10:10:29.515Z,30.40
2022-08-17T10:23:02.486Z,31.00
2022-08-17T10:29:13.434Z,31.40
2022-08-17T10:31:48.469Z,31.60
2022-08-17T10:45:11.318Z,31.70
2022-08-17T11:12:32.339Z,33.00
2022-08-17T11:21:59.817Z,33.30
2022-08-17T11:24:37.440Z,33.40
2022-08-17T11:27:07.847Z,33.50
2022-08-17T11:30:02.168Z,33.60
2022-08-17T11:32:47.598Z,33.80
2022-08-17T11:35:20.642Z,34.20
2022-08-17T11:38:16.842Z,34.20
2022-08-17T11:41:02.622Z,34.10
2022-08-17T11:43:47.869Z,34.20
2022-08-17T11:46:25.277Z,34.40
2022-08-17T11:49:11.236Z,34.40
2022-08-17T11:52:11.532Z,34.60
2022-08-17T11:54:46.887Z,35.20
2022-08-17T11:57:25.586Z,35.50
2022-08-17T12:00:08.179Z,35.90
2022-08-17T12:02:47.545Z,36.40
2022-08-17T12:05:17.959Z,37.10
2022-08-17T12:07:49.141Z,37.70
2022-08-17T12:10:20.364Z,38.10
2022-08-17T12:12:50.136Z,38.80
2022-08-17T12:15:28.814Z,39.60
2022-08-17T12:17:57.054Z,40.50
2022-08-17T12:20:37.887Z,41.30
2022-08-17T12:23:23.694Z,42.50
2022-08-17T12:26:07.290Z,44.00
2022-08-17T12:28:37.108Z,45.40
2022-08-17T12:31:07.997Z,47.00
2022-08-17T12:33:37.000Z,47.70
2022-08-17T12:36:08.545Z,48.70
2022-08-17T12:38:38.159Z,48.40
2022-08-17T12:41:26.316Z,49.30
2022-08-17T12:44:13.606Z,49.90
2022-08-17T12:46:55.435Z,50.30
2022-08-17T12:49:29.936Z,51.00
2022-08-17T12:52:17.696Z,51.50
2022-08-17T12:54:53.555Z,52.10
2022-08-17T12:57:25.270Z,52.70
2022-08-17T13:00:21.989Z,53.50
2022-08-17T13:03:01.524Z,52.40
2022-08-17T13:05:54.124Z,52.80
2022-08-17T13:08:38.005Z,51.90
2022-08-17T13:11:16.442Z,52.40
2022-08-17T13:13:46.523Z,53.20
2022-08-17T13:16:14.331Z,53.70
2022-08-17T13:18:47.187Z,54.00
2022-08-17T13:21:23.867Z,54.10
2022-08-17T13:24:07.582Z,53.40
2022-08-17T13:26:48.368Z,53.00
2022-08-17T13:29:26.019Z,53.30
2022-08-17T13:32:04.099Z,53.90
2022-08-17T13:34:38.694Z,54.70
2022-08-17T13:37:30.029Z,54.80
2022-08-17T13:40:08.850Z,54.80
2022-08-17T13:42:52.707Z,55.10
2022-08-17T13:45:36.656Z,55.30
2022-08-17T13:48:22.939Z,55.30
2022-08-17T13:50:56.115Z,54.40
2022-08-17T13:53:27.104Z,54.00
2022-08-17T13:55:55.224Z,54.30
2022-08-17T13:58:26.373Z,53.70
2022-08-17T14:00:53.574Z,53.20
2022-08-17T14:03:20.952Z,52.90
2022-08-17T14:05:50.100Z,52.80
2022-08-17T14:08:19.490Z,53.20
2022-08-17T14:10:58.262Z,53.90
2022-08-17T14:13:25.045Z,54.20
2022-08-17T14:15:55.816Z,54.70
2022-08-17T14:18:49.843Z,54.70
2022-08-17T14:21:11.594Z,54.30
2022-08-17T14:23:38.523Z,54.30
2022-08-17T14:26:05.778Z,54.30
2022-08-17T14:28:32.608Z,54.60
2022-08-17T14:31:00.763Z,54.90
2022-08-17T14:33:28.561Z,53.60
2022-08-17T14:35:55.876Z,52.70
2022-08-17T14:38:23.468Z,52.20
2022-08-17T14:40:50.780Z,52.50
2022-08-17T14:43:17.980Z,52.80
2022-08-17T14:45:44.768Z,52.70
2022-08-17T14:48:11.894Z,53.10
2022-08-17T14:50:41.535Z,53.10
2022-08-17T14:53:11.071Z,52.70
2022-08-17T14:55:40.365Z,52.90
2022-08-17T14:58:08.994Z,53.60
2022-08-17T15:00:39.473Z,53.80
2022-08-17T15:03:06.275Z,54.50
2022-08-17T15:05:36.711Z,53.80
2022-08-17T15:08:05.458Z,53.20
2022-08-17T15:10:32.848Z,52.50
2022-08-17T15:13:00.478Z,51.80
2022-08-17T15:15:28.186Z,51.20
2022-08-17T15:17:55.221Z,51.80
2022-08-17T15:20:29.569Z,52.00
2022-08-17T15:22:57.494Z,51.60
2022-08-17T15:25:27.578Z,51.00
2022-08-17T15:27:55.810Z,50.40
2022-08-17T15:30:23.179Z,49.80
2022-08-17T15:32:54.977Z,49.80
2022-08-17T15:35:27.965Z,49.50
2022-08-17T15:38:11.592Z,49.20
2022-08-17T15:40:43.071Z,49.20
2022-08-17T15:43:27.050Z,48.60
2022-08-17T15:46:07.090Z,48.30
2022-08-17T15:48:44.658Z,48.00
2022-08-17T15:51:19.479Z,47.80
2022-08-17T15:53:49.692Z,48.20
2022-08-17T15:56:17.398Z,47.90
2022-08-17T15:58:46.667Z,47.70
2022-08-17T16:01:18.707Z,47.80
2022-08-17T16:04:06.580Z,47.70
2022-08-17T16:06:43.584Z,47.60
2022-08-17T16:09:10.388Z,47.50
2022-08-17T16:11:37.157Z,47.60
2022-08-17T16:14:04.928Z,47.60
2022-08-17T16:16:32.817Z,47.60
2022-08-17T16:18:59.680Z,47.50
2022-08-17T16:21:27.362Z,47.70
2022-08-17T16:23:59.044Z,47.60
2022-08-17T16:26:27.187Z,47.70
2022-08-17T16:28:55.075Z,47.40
2022-08-17T16:31:22.230Z,46.80
2022-08-17T16:34:16.413Z,46.30
2022-08-17T16:36:37.875Z,46.00
2022-08-17T16:39:04.819Z,45.60
2022-08-17T16:41:44.441Z,46.00
2022-08-17T16:44:21.904Z,45.80
2022-08-17T16:46:50.161Z,45.50
2022-08-17T16:49:36.103Z,45.40
2022-08-17T16:52:07.161Z,45.20
2022-08-17T16:54:35.293Z,44.70
2022-08-17T16:57:04.933Z,44.20
2022-08-17T16:59:40.734Z,43.60
2022-08-17T17:02:12.945Z,43.30
2022-08-17T17:05:02.932Z,42.60
2022-08-17T17:07:49.753Z,42.10
2022-08-17T17:10:22.026Z,41.30
2022-08-17T17:13:00.898Z,40.80
2022-08-17T17:15:46.330Z,40.30
2022-08-17T17:18:15.379Z,39.70
2022-08-17T17:20:53.991Z,38.70
2022-08-17T17:23:36.584Z,37.70
2022-08-17T17:26:29.337Z,37.30
2022-08-17T17:29:18.235Z,36.40
2022-08-17T17:32:09.458Z,35.60
2022-08-17T17:34:38.129Z,35.00
2022-08-17T17:37:16.985Z,34.60
2022-08-17T17:39:51.319Z,34.10
2022-08-17T17:42:23.425Z,33.40
2022-08-17T17:45:16.858Z,33.10
2022-08-17T17:47:44.473Z,32.60
2022-08-17T18:01:14.582Z,31.00
2022-08-17T18:04:31.124Z,30.40
2022-08-17T18:07:03.812Z,30.40
2022-08-17T18:10:01.498Z,30.20
2022-08-17T18:13:25.938Z,29.00
2022-08-17T18:16:32.545Z,29.70
2022-08-17T18:19:00.383Z,29.60
2022-08-17T18:21:44.745Z,29.50
2022-08-17T18:24:32.874Z,28.00
2022-08-17T18:27:08.567Z,29.10
2022-08-17T18:29:43.678Z,28.20
2022-08-17T18:32:32.326Z,28.70
2022-08-17T18:38:22.465Z,28.50
2022-08-17T18:50:35.476Z,27.80
2022-08-17T18:56:30.844Z,27.90
2022-08-17T18:59:02.068Z,26.30
2022-08-17T19:01:52.435Z,26.70
2022-08-17T19:04:43.202Z,27.50
2022-08-17T19:07:32.752Z,27.50
2022-08-17T19:10:13.402Z,27.30
2022-08-17T19:13:00.493Z,27.20
2022-08-17T19:18:17.034Z,27.10
2022-08-17T19:21:05.065Z,27.00
2022-08-17T19:23:41.980Z,26.90
2022-08-17T19:26:53.588Z,26.90
2022-08-17T19:29:39.419Z,26.90
2022-08-17T19:32:11.182Z,26.90
2022-08-17T19:34:39.372Z,26.90
2022-08-17T19:40:35.048Z,26.70
2022-08-17T19:43:21.857Z,26.60
2022-08-17T19:46:10.669Z,26.60
2022-08-17T19:48:39.342Z,25.40
2022-08-17T19:51:32.020Z,26.60
2022-08-17T19:56:35.424Z,26.60
2022-08-17T20:07:18.304Z,26.40
2022-08-17T20:10:03.498Z,26.40
2022-08-17T20:12:35.570Z,25.70
2022-08-17T20:17:54.382Z,26.10
2022-08-17T20:20:42.916Z,26.10
2022-08-17T20:23:23.993Z,26.10
2022-08-17T20:26:19.279Z,26.00
2022-08-17T20:40:27.652Z,25.80
2022-08-17T20:42:56.018Z,24.90
2022-08-17T20:45:26.347Z,25.70
2022-08-17T20:48:26.086Z,25.80
2022-08-17T20:50:51.962Z,25.80
2022-08-17T20:53:46.812Z,25.80
2022-08-17T20:56:24.455Z,25.80
2022-08-17T20:58:51.407Z,25.80
2022-08-17T21:01:34.629Z,25.80
2022-08-17T21:07:23.595Z,25.70
2022-08-17T21:09:50.772Z,25.80
2022-08-17T21:17:50.349Z,25.70
2022-08-17T21:20:32.223Z,25.60
2022-08-17T21:23:15.872Z,25.50
2022-08-17T22:10:32.423Z,25.00
2022-08-17T22:13:16.805Z,25.00
2022-08-17T22:16:15.385Z,24.90
2022-08-17T22:49:56.631Z,24.20
2022-08-17T22:58:07.574Z,24.00
2022-08-17T23:00:44.547Z,23.90
2022-08-17T23:08:54.833Z,23.50
2022-08-17T23:17:37.551Z,23.20
2022-08-17T23:20:08.360Z,23.20
2022-08-17T23:28:07.039Z,23.00
2022-08-17T23:30:36.841Z,23.10
2022-08-17T23:33:08.158Z,23.10
2022-08-17T23:41:00.349Z,23.30
2022-08-17T23:43:28.699Z,24.80
2022-08-17T23:45:57.934Z,22.60
2022-08-17T23:51:04.263Z,23.40
